sensor_id;sensor_type;location;lat;lon;timestamp;P1;durP1;ratioP1;P2;durP2;ratioP2
50906;SDS011;36882;27.680;85.304;2022-11-23T00:01:34;74.07;;;39.47;;
50906;SDS011;36882;27.680;85.304;2022-11-23T00:04:06;65.93;;;40.45;;
50906;SDS011;36882;27.680;85.304;2022-11-23T00:06:38;87.57;;;63.25;;
50906;SDS011;36882;27.680;85.304;2022-11-23T00:09:13;96.95;;;65.97;;
50906;SDS011;36882;27.680;85.304;2022-11-23T00:11:44;113.50;;;78.20;;
50906;SDS011;36882;27.680;85.304;2022-11-23T00:14:14;107.38;;;70.82;;
50906;SDS011;36882;27.680;85.304;2022-11-23T00:16:44;101.43;;;61.55;;
50906;SDS011;36882;27.680;85.304;2022-11-23T00:19:14;101.35;;;68.78;;
50906;SDS011;36882;27.680;85.304;2022-11-23T00:21:44;102.22;;;65.78;;
50906;SDS011;36882;27.680;85.304;2022-11-23T00:24:14;86.40;;;54.60;;
50906;SDS011;36882;27.680;85.304;2022-11-23T00:26:44;89.90;;;55.08;;
50906;SDS011;36882;27.680;85.304;2022-11-23T00:29:14;84.55;;;52.80;;
50906;SDS011;36882;27.680;85.304;2022-11-23T00:31:44;83.15;;;52.70;;
50906;SDS011;36882;27.680;85.304;2022-11-23T00:34:15;82.22;;;54.60;;
50906;SDS011;36882;27.680;85.304;2022-11-23T00:36:44;89.15;;;54.25;;
50906;SDS011;36882;27.680;85.304;2022-11-23T00:39:14;81.93;;;51.30;;
50906;SDS011;36882;27.680;85.304;2022-11-23T00:41:44;81.90;;;48.70;;
50906;SDS011;36882;27.680;85.304;2022-11-23T00:44:14;112.32;;;64.30;;
50906;SDS011;36882;27.680;85.304;2022-11-23T00:46:44;92.40;;;58.78;;
50906;SDS011;36882;27.680;85.304;2022-11-23T00:49:14;103.15;;;59.33;;
50906;SDS011;36882;27.680;85.304;2022-11-23T00:51:44;93.72;;;55.45;;
50906;SDS011;36882;27.680;85.304;2022-11-23T00:54:14;88.03;;;55.22;;
50906;SDS011;36882;27.680;85.304;2022-11-23T00:56:44;86.47;;;49.90;;
50906;SDS011;36882;27.680;85.304;2022-11-23T00:59:14;86.68;;;50.83;;
50906;SDS011;36882;27.680;85.304;2022-11-23T01:01:44;86.65;;;47.55;;
50906;SDS011;36882;27.680;85.304;2022-11-23T01:04:16;74.35;;;42.17;;
50906;SDS011;36882;27.680;85.304;2022-11-23T01:06:46;78.75;;;43.90;;
50906;SDS011;36882;27.680;85.304;2022-11-23T01:09:17;88.30;;;43.63;;
50906;SDS011;36882;27.680;85.304;2022-11-23T01:11:52;84.43;;;43.47;;
50906;SDS011;36882;27.680;85.304;2022-11-23T01:14:22;83.30;;;45.20;;
50906;SDS011;36882;27.680;85.304;2022-11-23T01:16:52;73.90;;;40.42;;
50906;SDS011;36882;27.680;85.304;2022-11-23T01:19:22;71.93;;;43.23;;
50906;SDS011;36882;27.680;85.304;2022-11-23T01:21:52;69.05;;;40.08;;
50906;SDS011;36882;27.680;85.304;2022-11-23T01:24:22;73.63;;;43.65;;
50906;SDS011;36882;27.680;85.304;2022-11-23T01:26:52;85.80;;;44.95;;
50906;SDS011;36882;27.680;85.304;2022-11-23T01:29:23;76.32;;;45.45;;
50906;SDS011;36882;27.680;85.304;2022-11-23T01:31:53;89.32;;;44.78;;
50906;SDS011;36882;27.680;85.304;2022-11-23T01:34:23;70.18;;;40.65;;
50906;SDS011;36882;27.680;85.304;2022-11-23T01:36:53;76.55;;;39.72;;
50906;SDS011;36882;27.680;85.304;2022-11-23T01:39:24;70.85;;;39.97;;
50906;SDS011;36882;27.680;85.304;2022-11-23T01:41:54;72.05;;;40.13;;
50906;SDS011;36882;27.680;85.304;2022-11-23T01:44:26;79.00;;;38.00;;
50906;SDS011;36882;27.680;85.304;2022-11-23T01:47:00;73.50;;;40.13;;
50906;SDS011;36882;27.680;85.304;2022-11-23T01:49:36;68.15;;;37.67;;
50906;SDS011;36882;27.680;85.304;2022-11-23T01:52:11;100.22;;;44.20;;
50906;SDS011;36882;27.680;85.304;2022-11-23T01:54:45;82.85;;;42.45;;
50906;SDS011;36882;27.680;85.304;2022-11-23T01:57:20;79.13;;;42.10;;
50906;SDS011;36882;27.680;85.304;2022-11-23T01:59:54;73.95;;;39.83;;
50906;SDS011;36882;27.680;85.304;2022-11-23T02:04:55;87.30;;;48.53;;
50906;SDS011;36882;27.680;85.304;2022-11-23T02:07:28;98.50;;;51.90;;
50906;SDS011;36882;27.680;85.304;2022-11-23T02:10:00;94.75;;;52.40;;
50906;SDS011;36882;27.680;85.304;2022-11-23T02:12:30;91.28;;;50.15;;
50906;SDS011;36882;27.680;85.304;2022-11-23T02:15:00;87.25;;;54.78;;
50906;SDS011;36882;27.680;85.304;2022-11-23T02:17:30;91.53;;;49.63;;
50906;SDS011;36882;27.680;85.304;2022-11-23T02:20:17;92.25;;;50.92;;
50906;SDS011;36882;27.680;85.304;2022-11-23T02:22:49;82.88;;;51.65;;
50906;SDS011;36882;27.680;85.304;2022-11-23T02:25:59;76.40;;;45.95;;
50906;SDS011;36882;27.680;85.304;2022-11-23T02:28:28;80.22;;;47.13;;
50906;SDS011;36882;27.680;85.304;2022-11-23T02:31:04;78.70;;;47.60;;
50906;SDS011;36882;27.680;85.304;2022-11-23T02:33:36;94.10;;;49.75;;
50906;SDS011;36882;27.680;85.304;2022-11-23T02:36:39;89.22;;;51.47;;
50906;SDS011;36882;27.680;85.304;2022-11-23T02:39:06;87.72;;;54.22;;
50906;SDS011;36882;27.680;85.304;2022-11-23T02:41:41;87.90;;;52.83;;
50906;SDS011;36882;27.680;85.304;2022-11-23T02:47:21;84.35;;;54.35;;
50906;SDS011;36882;27.680;85.304;2022-11-23T02:49:51;101.57;;;54.65;;
50906;SDS011;36882;27.680;85.304;2022-11-23T02:52:21;96.68;;;55.08;;
50906;SDS011;36882;27.680;85.304;2022-11-23T02:54:52;98.30;;;52.30;;
50906;SDS011;36882;27.680;85.304;2022-11-23T02:57:22;91.45;;;57.15;;
50906;SDS011;36882;27.680;85.304;2022-11-23T02:59:52;86.68;;;52.63;;
50906;SDS011;36882;27.680;85.304;2022-11-23T03:02:22;88.90;;;55.53;;
50906;SDS011;36882;27.680;85.304;2022-11-23T03:04:51;98.93;;;56.03;;
50906;SDS011;36882;27.680;85.304;2022-11-23T03:07:22;92.78;;;54.92;;
50906;SDS011;36882;27.680;85.304;2022-11-23T03:09:52;106.53;;;59.42;;
50906;SDS011;36882;27.680;85.304;2022-11-23T03:12:22;99.05;;;57.67;;
50906;SDS011;36882;27.680;85.304;2022-11-23T03:14:52;104.13;;;62.80;;
50906;SDS011;36882;27.680;85.304;2022-11-23T03:17:22;88.35;;;59.70;;
50906;SDS011;36882;27.680;85.304;2022-11-23T03:19:52;100.75;;;58.85;;
50906;SDS011;36882;27.680;85.304;2022-11-23T03:22:22;107.13;;;60.97;;
50906;SDS011;36882;27.680;85.304;2022-11-23T03:24:52;120.22;;;61.63;;
50906;SDS011;36882;27.680;85.304;2022-11-23T03:27:22;100.03;;;60.15;;
50906;SDS011;36882;27.680;85.304;2022-11-23T03:29:52;99.78;;;61.33;;
50906;SDS011;36882;27.680;85.304;2022-11-23T03:32:22;114.97;;;69.38;;
50906;SDS011;36882;27.680;85.304;2022-11-23T03:34:52;109.03;;;67.18;;
50906;SDS011;36882;27.680;85.304;2022-11-23T03:37:25;103.90;;;66.35;;
50906;SDS011;36882;27.680;85.304;2022-11-23T03:39:56;105.30;;;71.63;;
50906;SDS011;36882;27.680;85.304;2022-11-23T03:42:27;104.63;;;65.40;;
50906;SDS011;36882;27.680;85.304;2022-11-23T03:44:57;105.97;;;69.50;;
50906;SDS011;36882;27.680;85.304;2022-11-23T03:47:26;107.30;;;68.55;;
50906;SDS011;36882;27.680;85.304;2022-11-23T03:49:56;118.47;;;70.78;;
50906;SDS011;36882;27.680;85.304;2022-11-23T03:52:27;91.75;;;60.20;;
50906;SDS011;36882;27.680;85.304;2022-11-23T03:55:00;104.38;;;64.30;;
50906;SDS011;36882;27.680;85.304;2022-11-23T03:57:30;103.88;;;62.05;;
50906;SDS011;36882;27.680;85.304;2022-11-23T04:00:00;98.45;;;63.15;;
50906;SDS011;36882;27.680;85.304;2022-11-23T04:02:32;103.95;;;64.30;;
50906;SDS011;36882;27.680;85.304;2022-11-23T04:05:02;103.90;;;64.30;;
50906;SDS011;36882;27.680;85.304;2022-11-23T04:07:32;97.60;;;64.45;;
50906;SDS011;36882;27.680;85.304;2022-11-23T04:10:02;101.13;;;63.55;;
50906;SDS011;36882;27.680;85.304;2022-11-23T04:15:01;104.15;;;63.20;;
50906;SDS011;36882;27.680;85.304;2022-11-23T04:20:01;102.13;;;63.88;;
50906;SDS011;36882;27.680;85.304;2022-11-23T04:22:33;112.35;;;64.53;;
50906;SDS011;36882;27.680;85.304;2022-11-23T04:25:03;99.38;;;65.35;;
50906;SDS011;36882;27.680;85.304;2022-11-23T04:30:03;102.30;;;65.60;;
50906;SDS011;36882;27.680;85.304;2022-11-23T04:32:34;107.43;;;67.35;;
50906;SDS011;36882;27.680;85.304;2022-11-23T04:35:04;109.93;;;67.55;;
50906;SDS011;36882;27.680;85.304;2022-11-23T04:37:34;117.68;;;78.40;;
50906;SDS011;36882;27.680;85.304;2022-11-23T04:40:04;110.45;;;71.38;;
50906;SDS011;36882;27.680;85.304;2022-11-23T04:42:35;122.45;;;77.70;;
50906;SDS011;36882;27.680;85.304;2022-11-23T04:45:05;122.47;;;80.90;;
50906;SDS011;36882;27.680;85.304;2022-11-23T04:50:04;139.63;;;77.18;;
50906;SDS011;36882;27.680;85.304;2022-11-23T04:52:35;127.72;;;83.38;;
50906;SDS011;36882;27.680;85.304;2022-11-23T04:55:05;126.70;;;80.65;;
50906;SDS011;36882;27.680;85.304;2022-11-23T04:57:35;135.68;;;84.20;;
50906;SDS011;36882;27.680;85.304;2022-11-23T05:00:05;125.55;;;87.03;;
50906;SDS011;36882;27.680;85.304;2022-11-23T05:02:36;132.77;;;84.38;;
50906;SDS011;36882;27.680;85.304;2022-11-23T05:05:06;123.93;;;80.97;;
50906;SDS011;36882;27.680;85.304;2022-11-23T05:07:37;135.40;;;82.63;;
50906;SDS011;36882;27.680;85.304;2022-11-23T05:10:08;122.75;;;81.47;;
50906;SDS011;36882;27.680;85.304;2022-11-23T05:12:38;129.52;;;82.03;;
50906;SDS011;36882;27.680;85.304;2022-11-23T05:15:09;125.25;;;80.55;;
50906;SDS011;36882;27.680;85.304;2022-11-23T05:17:43;125.97;;;80.70;;
50906;SDS011;36882;27.680;85.304;2022-11-23T05:20:13;137.20;;;84.68;;
50906;SDS011;36882;27.680;85.304;2022-11-23T05:22:43;130.15;;;86.32;;
50906;SDS011;36882;27.680;85.304;2022-11-23T05:25:13;135.50;;;85.10;;
50906;SDS011;36882;27.680;85.304;2022-11-23T05:27:43;121.97;;;84.13;;
50906;SDS011;36882;27.680;85.304;2022-11-23T05:30:13;133.90;;;83.03;;
50906;SDS011;36882;27.680;85.304;2022-11-23T05:32:43;131.77;;;80.13;;
50906;SDS011;36882;27.680;85.304;2022-11-23T05:35:13;128.10;;;77.90;;
50906;SDS011;36882;27.680;85.304;2022-11-23T05:37:44;124.65;;;82.15;;
50906;SDS011;36882;27.680;85.304;2022-11-23T05:40:14;136.60;;;82.88;;
50906;SDS011;36882;27.680;85.304;2022-11-23T05:42:44;124.43;;;85.00;;
50906;SDS011;36882;27.680;85.304;2022-11-23T05:45:14;131.13;;;79.68;;
50906;SDS011;36882;27.680;85.304;2022-11-23T05:47:48;131.85;;;84.00;;
50906;SDS011;36882;27.680;85.304;2022-11-23T05:50:25;122.25;;;79.00;;
50906;SDS011;36882;27.680;85.304;2022-11-23T05:52:56;136.13;;;85.22;;
50906;SDS011;36882;27.680;85.304;2022-11-23T05:55:26;125.78;;;83.28;;
50906;SDS011;36882;27.680;85.304;2022-11-23T05:57:56;129.02;;;79.45;;
50906;SDS011;36882;27.680;85.304;2022-11-23T06:00:26;122.25;;;79.43;;
50906;SDS011;36882;27.680;85.304;2022-11-23T06:03:00;117.93;;;69.43;;
50906;SDS011;36882;27.680;85.304;2022-11-23T06:05:30;110.53;;;67.60;;
50906;SDS011;36882;27.680;85.304;2022-11-23T06:08:01;96.80;;;62.78;;
50906;SDS011;36882;27.680;85.304;2022-11-23T06:10:30;92.75;;;56.22;;
50906;SDS011;36882;27.680;85.304;2022-11-23T06:13:01;89.78;;;59.05;;
50906;SDS011;36882;27.680;85.304;2022-11-23T06:15:32;82.22;;;53.35;;
50906;SDS011;36882;27.680;85.304;2022-11-23T06:18:02;68.00;;;47.38;;
50906;SDS011;36882;27.680;85.304;2022-11-23T06:23:02;71.10;;;48.08;;
50906;SDS011;36882;27.680;85.304;2022-11-23T06:25:35;67.40;;;44.17;;
50906;SDS011;36882;27.680;85.304;2022-11-23T06:28:06;68.78;;;42.97;;
50906;SDS011;36882;27.680;85.304;2022-11-23T06:33:06;60.67;;;42.58;;
50906;SDS011;36882;27.680;85.304;2022-11-23T06:35:36;60.75;;;39.72;;
50906;SDS011;36882;27.680;85.304;2022-11-23T06:38:06;64.85;;;43.70;;
50906;SDS011;36882;27.680;85.304;2022-11-23T06:40:36;64.57;;;39.42;;
50906;SDS011;36882;27.680;85.304;2022-11-23T06:43:06;59.92;;;38.05;;
50906;SDS011;36882;27.680;85.304;2022-11-23T06:45:36;66.40;;;36.97;;
50906;SDS011;36882;27.680;85.304;2022-11-23T06:48:06;73.60;;;38.75;;
50906;SDS011;36882;27.680;85.304;2022-11-23T06:50:36;64.18;;;38.78;;
50906;SDS011;36882;27.680;85.304;2022-11-23T06:53:07;56.20;;;36.55;;
50906;SDS011;36882;27.680;85.304;2022-11-23T06:55:40;56.28;;;36.80;;
50906;SDS011;36882;27.680;85.304;2022-11-23T06:58:10;65.72;;;35.55;;
50906;SDS011;36882;27.680;85.304;2022-11-23T07:00:40;56.85;;;33.92;;
50906;SDS011;36882;27.680;85.304;2022-11-23T07:03:17;53.28;;;34.28;;
50906;SDS011;36882;27.680;85.304;2022-11-23T07:05:49;51.58;;;33.00;;
50906;SDS011;36882;27.680;85.304;2022-11-23T07:08:19;48.53;;;31.30;;
50906;SDS011;36882;27.680;85.304;2022-11-23T07:13:19;44.00;;;28.05;;
50906;SDS011;36882;27.680;85.304;2022-11-23T07:15:49;42.55;;;27.08;;
50906;SDS011;36882;27.680;85.304;2022-11-23T07:18:21;43.53;;;25.40;;
50906;SDS011;36882;27.680;85.304;2022-11-23T07:20:51;38.40;;;26.52;;
50906;SDS011;36882;27.680;85.304;2022-11-23T07:23:23;42.42;;;27.35;;
50906;SDS011;36882;27.680;85.304;2022-11-23T07:25:54;44.78;;;27.83;;
50906;SDS011;36882;27.680;85.304;2022-11-23T07:28:25;39.78;;;27.42;;
50906;SDS011;36882;27.680;85.304;2022-11-23T07:30:55;38.50;;;24.55;;
50906;SDS011;36882;27.680;85.304;2022-11-23T07:33:26;36.58;;;24.13;;
50906;SDS011;36882;27.680;85.304;2022-11-23T07:35:59;42.00;;;26.50;;
50906;SDS011;36882;27.680;85.304;2022-11-23T07:41:19;36.40;;;25.75;;
50906;SDS011;36882;27.680;85.304;2022-11-23T07:43:50;40.90;;;24.10;;
50906;SDS011;36882;27.680;85.304;2022-11-23T07:46:21;35.97;;;25.02;;
50906;SDS011;36882;27.680;85.304;2022-11-23T07:48:52;36.33;;;24.50;;
50906;SDS011;36882;27.680;85.304;2022-11-23T07:51:27;45.53;;;28.25;;
50906;SDS011;36882;27.680;85.304;2022-11-23T07:53:58;41.15;;;27.88;;
50906;SDS011;36882;27.680;85.304;2022-11-23T07:56:29;42.25;;;29.67;;
50906;SDS011;36882;27.680;85.304;2022-11-23T07:58:59;40.63;;;27.25;;
50906;SDS011;36882;27.680;85.304;2022-11-23T08:01:30;42.85;;;27.20;;
50906;SDS011;36882;27.680;85.304;2022-11-23T08:04:00;40.15;;;25.40;;
50906;SDS011;36882;27.680;85.304;2022-11-23T08:06:30;34.03;;;24.77;;
50906;SDS011;36882;27.680;85.304;2022-11-23T08:09:01;47.65;;;25.85;;
50906;SDS011;36882;27.680;85.304;2022-11-23T08:11:31;46.17;;;28.88;;
50906;SDS011;36882;27.680;85.304;2022-11-23T08:14:02;54.67;;;36.53;;
50906;SDS011;36882;27.680;85.304;2022-11-23T08:16:32;77.22;;;40.45;;
50906;SDS011;36882;27.680;85.304;2022-11-23T08:19:03;73.00;;;39.83;;
50906;SDS011;36882;27.680;85.304;2022-11-23T08:21:34;70.82;;;38.33;;
50906;SDS011;36882;27.680;85.304;2022-11-23T08:24:04;67.20;;;36.08;;
50906;SDS011;36882;27.680;85.304;2022-11-23T08:26:35;55.40;;;34.53;;
50906;SDS011;36882;27.680;85.304;2022-11-23T08:29:06;62.70;;;36.00;;
50906;SDS011;36882;27.680;85.304;2022-11-23T08:31:36;48.80;;;34.55;;
50906;SDS011;36882;27.680;85.304;2022-11-23T08:34:07;59.78;;;33.97;;
50906;SDS011;36882;27.680;85.304;2022-11-23T08:36:37;40.90;;;28.95;;
50906;SDS011;36882;27.680;85.304;2022-11-23T08:39:08;56.85;;;29.45;;
50906;SDS011;36882;27.680;85.304;2022-11-23T08:41:39;43.92;;;25.88;;
50906;SDS011;36882;27.680;85.304;2022-11-23T08:44:09;56.85;;;29.95;;
50906;SDS011;36882;27.680;85.304;2022-11-23T08:46:39;69.78;;;27.85;;
50906;SDS011;36882;27.680;85.304;2022-11-23T08:49:09;62.92;;;29.23;;
50906;SDS011;36882;27.680;85.304;2022-11-23T08:51:39;35.78;;;24.05;;
50906;SDS011;36882;27.680;85.304;2022-11-23T08:54:15;48.22;;;26.20;;
50906;SDS011;36882;27.680;85.304;2022-11-23T08:56:45;52.17;;;25.55;;
50906;SDS011;36882;27.680;85.304;2022-11-23T08:59:16;52.83;;;27.80;;
50906;SDS011;36882;27.680;85.304;2022-11-23T09:01:47;47.10;;;25.15;;
50906;SDS011;36882;27.680;85.304;2022-11-23T09:04:18;37.13;;;24.73;;
50906;SDS011;36882;27.680;85.304;2022-11-23T09:06:47;38.53;;;24.38;;
50906;SDS011;36882;27.680;85.304;2022-11-23T09:09:18;53.28;;;24.50;;
50906;SDS011;36882;27.680;85.304;2022-11-23T09:14:17;45.15;;;24.63;;
50906;SDS011;36882;27.680;85.304;2022-11-23T09:16:49;38.95;;;24.67;;
50906;SDS011;36882;27.680;85.304;2022-11-23T09:21:49;39.75;;;23.58;;
50906;SDS011;36882;27.680;85.304;2022-11-23T09:26:50;36.92;;;21.13;;
50906;SDS011;36882;27.680;85.304;2022-11-23T09:29:20;51.38;;;22.50;;
50906;SDS011;36882;27.680;85.304;2022-11-23T09:34:20;40.63;;;21.85;;
50906;SDS011;36882;27.680;85.304;2022-11-23T09:36:50;36.75;;;22.27;;
50906;SDS011;36882;27.680;85.304;2022-11-23T09:39:20;42.28;;;21.13;;
50906;SDS011;36882;27.680;85.304;2022-11-23T09:42:11;44.90;;;22.17;;
50906;SDS011;36882;27.680;85.304;2022-11-23T09:51:15;44.17;;;22.73;;
50906;SDS011;36882;27.680;85.304;2022-11-23T09:53:52;49.22;;;23.67;;
50906;SDS011;36882;27.680;85.304;2022-11-23T09:56:31;41.53;;;24.15;;
50906;SDS011;36882;27.680;85.304;2022-11-23T09:59:10;36.42;;;22.17;;
50906;SDS011;36882;27.680;85.304;2022-11-23T10:01:50;59.25;;;24.88;;
50906;SDS011;36882;27.680;85.304;2022-11-23T10:06:53;46.10;;;25.15;;
50906;SDS011;36882;27.680;85.304;2022-11-23T10:09:55;42.25;;;23.65;;
50906;SDS011;36882;27.680;85.304;2022-11-23T10:13:05;39.60;;;24.95;;
50906;SDS011;36882;27.680;85.304;2022-11-23T10:15:45;51.40;;;24.65;;
50906;SDS011;36882;27.680;85.304;2022-11-23T10:24:36;54.70;;;28.85;;
50906;SDS011;36882;27.680;85.304;2022-11-23T10:27:13;43.92;;;28.70;;
50906;SDS011;36882;27.680;85.304;2022-11-23T10:29:46;47.65;;;31.00;;
50906;SDS011;36882;27.680;85.304;2022-11-23T10:32:24;49.60;;;30.88;;
50906;SDS011;36882;27.680;85.304;2022-11-23T10:35:15;54.55;;;30.92;;
50906;SDS011;36882;27.680;85.304;2022-11-23T10:38:07;60.08;;;30.67;;
50906;SDS011;36882;27.680;85.304;2022-11-23T10:40:50;66.35;;;32.72;;
50906;SDS011;36882;27.680;85.304;2022-11-23T10:46:38;55.55;;;31.77;;
50906;SDS011;36882;27.680;85.304;2022-11-23T10:49:26;52.47;;;34.00;;
50906;SDS011;36882;27.680;85.304;2022-11-23T10:52:00;58.20;;;35.05;;
50906;SDS011;36882;27.680;85.304;2022-11-23T10:54:48;59.58;;;35.25;;
50906;SDS011;36882;27.680;85.304;2022-11-23T11:00:15;62.28;;;38.28;;
50906;SDS011;36882;27.680;85.304;2022-11-23T11:02:52;59.35;;;38.28;;
50906;SDS011;36882;27.680;85.304;2022-11-23T11:05:29;65.65;;;40.28;;
50906;SDS011;36882;27.680;85.304;2022-11-23T11:08:22;68.45;;;41.97;;
50906;SDS011;36882;27.680;85.304;2022-11-23T11:11:07;68.68;;;42.90;;
50906;SDS011;36882;27.680;85.304;2022-11-23T11:13:48;62.20;;;39.90;;
50906;SDS011;36882;27.680;85.304;2022-11-23T11:19:33;73.82;;;42.35;;
50906;SDS011;36882;27.680;85.304;2022-11-23T11:22:23;75.82;;;41.40;;
50906;SDS011;36882;27.680;85.304;2022-11-23T11:25:02;83.78;;;45.40;;
50906;SDS011;36882;27.680;85.304;2022-11-23T11:27:34;86.65;;;48.05;;
50906;SDS011;36882;27.680;85.304;2022-11-23T11:30:05;86.93;;;48.58;;
50906;SDS011;36882;27.680;85.304;2022-11-23T11:32:51;81.18;;;44.63;;
50906;SDS011;36882;27.680;85.304;2022-11-23T11:35:37;85.75;;;46.58;;
50906;SDS011;36882;27.680;85.304;2022-11-23T11:38:14;79.55;;;46.42;;
50906;SDS011;36882;27.680;85.304;2022-11-23T11:40:51;81.90;;;48.67;;
50906;SDS011;36882;27.680;85.304;2022-11-23T11:46:19;78.18;;;48.70;;
50906;SDS011;36882;27.680;85.304;2022-11-23T11:51:41;88.10;;;53.90;;
50906;SDS011;36882;27.680;85.304;2022-11-23T11:54:24;94.00;;;51.28;;
50906;SDS011;36882;27.680;85.304;2022-11-23T11:57:09;90.82;;;54.03;;
50906;SDS011;36882;27.680;85.304;2022-11-23T11:59:49;86.97;;;53.58;;
50906;SDS011;36882;27.680;85.304;2022-11-23T12:02:28;90.97;;;56.03;;
50906;SDS011;36882;27.680;85.304;2022-11-23T12:05:13;90.13;;;53.70;;
50906;SDS011;36882;27.680;85.304;2022-11-23T12:10:57;83.82;;;56.70;;
50906;SDS011;36882;27.680;85.304;2022-11-23T12:13:31;92.88;;;57.75;;
50906;SDS011;36882;27.680;85.304;2022-11-23T12:16:14;90.60;;;58.78;;
50906;SDS011;36882;27.680;85.304;2022-11-23T12:19:05;94.13;;;59.80;;
50906;SDS011;36882;27.680;85.304;2022-11-23T12:24:50;100.00;;;59.97;;
50906;SDS011;36882;27.680;85.304;2022-11-23T12:30:29;97.47;;;64.20;;
50906;SDS011;36882;27.680;85.304;2022-11-23T12:33:14;103.03;;;63.38;;
50906;SDS011;36882;27.680;85.304;2022-11-23T12:36:20;99.88;;;66.20;;
50906;SDS011;36882;27.680;85.304;2022-11-23T12:39:04;107.43;;;70.28;;
50906;SDS011;36882;27.680;85.304;2022-11-23T12:41:53;129.50;;;76.15;;
50906;SDS011;36882;27.680;85.304;2022-11-23T12:44:45;113.05;;;76.82;;
50906;SDS011;36882;27.680;85.304;2022-11-23T12:50:46;103.50;;;68.43;;
50906;SDS011;36882;27.680;85.304;2022-11-23T12:54:02;105.80;;;60.00;;
50906;SDS011;36882;27.680;85.304;2022-11-23T12:56:54;88.57;;;56.67;;
50906;SDS011;36882;27.680;85.304;2022-11-23T12:59:41;84.50;;;55.67;;
50906;SDS011;36882;27.680;85.304;2022-11-23T13:05:24;89.30;;;58.20;;
50906;SDS011;36882;27.680;85.304;2022-11-23T13:14:26;75.03;;;49.60;;
50906;SDS011;36882;27.680;85.304;2022-11-23T13:20:14;84.80;;;49.03;;
50906;SDS011;36882;27.680;85.304;2022-11-23T13:23:04;89.25;;;52.10;;
50906;SDS011;36882;27.680;85.304;2022-11-23T13:25:34;93.05;;;55.58;;
50906;SDS011;36882;27.680;85.304;2022-11-23T13:28:25;108.75;;;59.47;;
50906;SDS011;36882;27.680;85.304;2022-11-23T13:33:48;95.55;;;56.88;;
50906;SDS011;36882;27.680;85.304;2022-11-23T13:36:40;88.68;;;56.50;;
50906;SDS011;36882;27.680;85.304;2022-11-23T13:42:32;84.90;;;50.78;;
50906;SDS011;36882;27.680;85.304;2022-11-23T13:48:01;82.95;;;50.10;;
50906;SDS011;36882;27.680;85.304;2022-11-23T13:51:04;90.28;;;53.53;;
50906;SDS011;36882;27.680;85.304;2022-11-23T13:53:38;91.07;;;50.55;;
50906;SDS011;36882;27.680;85.304;2022-11-23T13:56:21;74.72;;;46.00;;
50906;SDS011;36882;27.680;85.304;2022-11-23T13:59:30;83.13;;;47.75;;
50906;SDS011;36882;27.680;85.304;2022-11-23T14:02:00;74.63;;;44.08;;
50906;SDS011;36882;27.680;85.304;2022-11-23T14:04:50;80.05;;;47.72;;
50906;SDS011;36882;27.680;85.304;2022-11-23T14:07:23;83.65;;;51.17;;
50906;SDS011;36882;27.680;85.304;2022-11-23T14:10:00;80.13;;;48.45;;
50906;SDS011;36882;27.680;85.304;2022-11-23T14:13:21;75.55;;;46.78;;
50906;SDS011;36882;27.680;85.304;2022-11-23T14:15:32;84.68;;;45.28;;
50906;SDS011;36882;27.680;85.304;2022-11-23T14:21:10;65.25;;;40.97;;
50906;SDS011;36882;27.680;85.304;2022-11-23T14:26:51;68.30;;;42.97;;
50906;SDS011;36882;27.680;85.304;2022-11-23T14:29:55;66.18;;;39.40;;
50906;SDS011;36882;27.680;85.304;2022-11-23T14:35:48;68.40;;;41.75;;
50906;SDS011;36882;27.680;85.304;2022-11-23T14:38:40;77.90;;;47.55;;
50906;SDS011;36882;27.680;85.304;2022-11-23T14:41:25;72.28;;;45.63;;
50906;SDS011;36882;27.680;85.304;2022-11-23T14:43:59;87.93;;;51.67;;
50906;SDS011;36882;27.680;85.304;2022-11-23T14:46:30;71.53;;;45.10;;
50906;SDS011;36882;27.680;85.304;2022-11-23T14:49:03;76.55;;;46.63;;
50906;SDS011;36882;27.680;85.304;2022-11-23T14:51:35;80.13;;;45.20;;
50906;SDS011;36882;27.680;85.304;2022-11-23T14:54:12;86.75;;;47.80;;
50906;SDS011;36882;27.680;85.304;2022-11-23T14:56:45;80.50;;;49.85;;
50906;SDS011;36882;27.680;85.304;2022-11-23T14:59:19;81.00;;;51.22;;
50906;SDS011;36882;27.680;85.304;2022-11-23T15:01:58;96.20;;;48.97;;
50906;SDS011;36882;27.680;85.304;2022-11-23T15:04:31;92.22;;;50.10;;
50906;SDS011;36882;27.680;85.304;2022-11-23T15:09:55;74.75;;;48.58;;
50906;SDS011;36882;27.680;85.304;2022-11-23T15:12:45;73.72;;;45.13;;
50906;SDS011;36882;27.680;85.304;2022-11-23T15:15:18;81.30;;;48.47;;
50906;SDS011;36882;27.680;85.304;2022-11-23T15:17:52;74.40;;;45.72;;
50906;SDS011;36882;27.680;85.304;2022-11-23T15:20:28;71.90;;;47.33;;
50906;SDS011;36882;27.680;85.304;2022-11-23T15:23:01;88.65;;;46.58;;
50906;SDS011;36882;27.680;85.304;2022-11-23T15:25:31;102.28;;;61.83;;
50906;SDS011;36882;27.680;85.304;2022-11-23T15:28:01;120.60;;;75.07;;
50906;SDS011;36882;27.680;85.304;2022-11-23T15:30:33;76.78;;;52.50;;
50906;SDS011;36882;27.680;85.304;2022-11-23T15:33:08;72.35;;;43.33;;
50906;SDS011;36882;27.680;85.304;2022-11-23T15:35:39;75.95;;;43.65;;
50906;SDS011;36882;27.680;85.304;2022-11-23T15:38:10;66.22;;;43.83;;
50906;SDS011;36882;27.680;85.304;2022-11-23T15:40:49;64.85;;;43.22;;
50906;SDS011;36882;27.680;85.304;2022-11-23T15:43:19;66.82;;;42.53;;
50906;SDS011;36882;27.680;85.304;2022-11-23T15:48:40;57.30;;;39.85;;
50906;SDS011;36882;27.680;85.304;2022-11-23T15:51:21;72.40;;;42.33;;
50906;SDS011;36882;27.680;85.304;2022-11-23T15:53:57;63.78;;;38.13;;
50906;SDS011;36882;27.680;85.304;2022-11-23T15:56:32;65.47;;;41.85;;
50906;SDS011;36882;27.680;85.304;2022-11-23T15:59:13;71.35;;;39.72;;
50906;SDS011;36882;27.680;85.304;2022-11-23T16:02:16;75.35;;;44.22;;
50906;SDS011;36882;27.680;85.304;2022-11-23T16:07:55;71.40;;;43.92;;
50906;SDS011;36882;27.680;85.304;2022-11-23T16:10:29;59.88;;;42.33;;
50906;SDS011;36882;27.680;85.304;2022-11-23T16:13:01;72.18;;;41.15;;
50906;SDS011;36882;27.680;85.304;2022-11-23T16:15:40;72.55;;;40.47;;
50906;SDS011;36882;27.680;85.304;2022-11-23T16:18:19;57.80;;;37.28;;
50906;SDS011;36882;27.680;85.304;2022-11-23T16:21:02;59.35;;;37.35;;
50906;SDS011;36882;27.680;85.304;2022-11-23T16:23:48;63.20;;;36.25;;
50906;SDS011;36882;27.680;85.304;2022-11-23T16:26:31;60.97;;;37.60;;
50906;SDS011;36882;27.680;85.304;2022-11-23T16:29:02;57.58;;;35.17;;
50906;SDS011;36882;27.680;85.304;2022-11-23T16:31:37;63.95;;;38.95;;
50906;SDS011;36882;27.680;85.304;2022-11-23T16:34:11;57.33;;;38.92;;
50906;SDS011;36882;27.680;85.304;2022-11-23T16:36:44;62.83;;;38.35;;
50906;SDS011;36882;27.680;85.304;2022-11-23T16:39:14;60.97;;;40.42;;
50906;SDS011;36882;27.680;85.304;2022-11-23T16:41:45;60.22;;;40.30;;
50906;SDS011;36882;27.680;85.304;2022-11-23T16:44:15;59.05;;;37.97;;
50906;SDS011;36882;27.680;85.304;2022-11-23T16:46:45;60.97;;;38.88;;